createdAt,value
2018-09-06T00:02:11.678Z,19.47
2018-09-06T00:04:40.148Z,19.55
2018-09-06T00:07:08.550Z,19.52
2018-09-06T00:09:37.010Z,19.43
2018-09-06T00:12:05.503Z,19.40
2018-09-06T00:14:33.997Z,19.25
2018-09-06T00:17:02.418Z,19.20
2018-09-06T00:19:30.863Z,19.07
2018-09-06T00:21:59.292Z,19.01
2018-09-06T00:24:27.778Z,18.98
2018-09-06T00:26:56.181Z,19.02
2018-09-06T00:29:24.598Z,18.98
2018-09-06T00:31:53.013Z,19.02
2018-09-06T00:34:21.429Z,19.08
2018-09-06T00:36:49.834Z,19.13
2018-09-06T00:39:18.409Z,19.13
2018-09-06T00:41:46.814Z,19.10
2018-09-06T00:44:15.314Z,19.05
2018-09-06T00:46:43.725Z,19.03
2018-09-06T00:49:12.248Z,19.07
2018-09-06T00:51:40.670Z,19.06
2018-09-06T00:54:09.069Z,19.05
2018-09-06T00:56:37.511Z,19.03
2018-09-06T00:59:05.942Z,19.06
2018-09-06T01:01:34.603Z,19.09
2018-09-06T01:04:03.147Z,19.16
2018-09-06T01:06:31.590Z,19.04
2018-09-06T01:08:59.982Z,19.01
2018-09-06T01:11:28.441Z,18.94
2018-09-06T01:13:56.881Z,18.90
2018-09-06T01:16:25.325Z,18.88
2018-09-06T01:18:53.763Z,18.89
2018-09-06T01:21:22.201Z,18.88
2018-09-06T01:23:50.665Z,18.93
2018-09-06T01:26:19.090Z,18.90
2018-09-06T01:28:47.489Z,18.85
2018-09-06T01:31:16.489Z,18.82
2018-09-06T01:33:44.872Z,18.87
2018-09-06T01:36:18.581Z,18.85
2018-09-06T01:38:47.002Z,18.83
2018-09-06T01:41:15.445Z,18.83
2018-09-06T01:43:43.865Z,18.78
2018-09-06T01:46:12.245Z,18.84
2018-09-06T01:48:40.662Z,18.95
2018-09-06T01:51:09.081Z,18.83
2018-09-06T01:53:37.506Z,18.71
2018-09-06T01:56:05.929Z,18.68
2018-09-06T01:58:34.350Z,18.73
2018-09-06T02:01:02.744Z,18.63
2018-09-06T02:03:31.189Z,18.60
2018-09-06T02:05:59.625Z,18.69
2018-09-06T02:08:28.085Z,18.56
2018-09-06T02:10:56.472Z,18.58
2018-09-06T02:13:24.886Z,18.55
2018-09-06T02:15:53.296Z,18.54
2018-09-06T02:18:21.736Z,18.59
2018-09-06T02:20:50.130Z,18.58
2018-09-06T02:23:18.619Z,18.66
2018-09-06T02:25:47.057Z,18.60
2018-09-06T02:28:15.649Z,18.58
2018-09-06T02:30:44.081Z,18.54
2018-09-06T02:33:12.578Z,18.53
2018-09-06T02:35:41.197Z,18.50
2018-09-06T02:38:09.605Z,18.48
2018-09-06T02:40:39.857Z,18.38
2018-09-06T02:43:10.469Z,18.36
2018-09-06T02:45:38.983Z,18.36
2018-09-06T02:48:07.393Z,18.23
2018-09-06T02:51:43.989Z,18.32
2018-09-06T02:54:12.425Z,18.24
2018-09-06T02:56:40.809Z,18.21
2018-09-06T02:59:09.233Z,18.21
2018-09-06T03:01:37.617Z,18.28
2018-09-06T03:04:06.079Z,18.28
2018-09-06T03:06:34.508Z,18.25
2018-09-06T03:09:02.977Z,18.24
2018-09-06T03:11:36.705Z,18.23
2018-09-06T03:14:05.209Z,18.24
2018-09-06T03:16:33.858Z,18.24
2018-09-06T03:19:02.246Z,18.12
2018-09-06T03:21:30.706Z,18.09
2018-09-06T03:23:59.081Z,18.09
2018-09-06T03:26:27.494Z,18.09
2018-09-06T03:28:55.925Z,18.05
2018-09-06T03:31:24.357Z,18.04
2018-09-06T03:33:52.749Z,18.07
2018-09-06T03:36:21.174Z,18.11
2018-09-06T03:38:49.562Z,18.17
2018-09-06T03:41:17.998Z,18.16
2018-09-06T03:43:46.406Z,18.04
2018-09-06T03:46:14.864Z,18.00
2018-09-06T03:48:43.258Z,18.06
2018-09-06T03:51:11.709Z,18.14
2018-09-06T03:53:40.129Z,18.12
2018-09-06T03:56:08.589Z,18.02
2018-09-06T03:58:36.993Z,17.98
2018-09-06T04:01:05.388Z,18.03
2018-09-06T04:03:33.801Z,18.12
2018-09-06T04:06:02.181Z,18.11
2018-09-06T04:08:30.586Z,17.94
2018-09-06T04:10:58.964Z,17.88
2018-09-06T04:13:27.377Z,18.00
2018-09-06T04:15:55.760Z,17.97
2018-09-06T04:18:24.260Z,17.88
2018-09-06T04:20:52.645Z,17.92
2018-09-06T04:23:21.100Z,17.89
2018-09-06T04:25:49.510Z,17.91
2018-09-06T04:28:17.973Z,17.87
2018-09-06T04:30:46.393Z,17.93
2018-09-06T04:33:14.814Z,17.86
2018-09-06T04:35:43.257Z,17.80
2018-09-06T04:38:11.682Z,17.75
2018-09-06T04:40:40.057Z,17.81
2018-09-06T04:43:08.487Z,17.80
2018-09-06T04:45:36.886Z,17.74
2018-09-06T04:48:05.621Z,17.74
2018-09-06T04:50:34.067Z,17.71
2018-09-06T04:53:02.558Z,17.75
2018-09-06T04:55:30.950Z,17.79
2018-09-06T04:57:59.338Z,17.85
2018-09-06T05:00:27.760Z,17.84
2018-09-06T05:02:56.161Z,17.84
2018-09-06T05:05:24.621Z,17.81
2018-09-06T05:07:52.997Z,17.85
2018-09-06T05:10:21.425Z,17.81
2018-09-06T05:12:49.828Z,17.79
2018-09-06T05:15:18.294Z,17.72
2018-09-06T05:17:46.674Z,17.70
2018-09-06T05:20:15.126Z,17.73
2018-09-06T05:22:43.546Z,17.69
2018-09-06T05:25:12.011Z,17.75
2018-09-06T05:27:40.393Z,17.75
2018-09-06T05:30:08.845Z,17.75
2018-09-06T05:32:37.254Z,17.81
2018-09-06T05:35:05.776Z,17.83
2018-09-06T05:37:34.148Z,17.97
2018-09-06T05:40:02.578Z,18.03
2018-09-06T05:42:30.992Z,18.11
2018-09-06T05:44:59.425Z,18.09
2018-09-06T05:47:27.841Z,18.11
2018-09-06T05:49:56.245Z,18.18
2018-09-06T05:52:24.666Z,18.22
2018-09-06T05:54:53.049Z,18.25
2018-09-06T05:57:21.850Z,18.14
2018-09-06T05:59:50.255Z,18.04
2018-09-06T06:02:18.690Z,17.95
2018-09-06T06:04:47.085Z,17.97
2018-09-06T06:07:15.505Z,17.98
2018-09-06T06:09:43.889Z,17.99
2018-09-06T06:12:12.329Z,17.96
2018-09-06T06:14:40.725Z,18.05
2018-09-06T06:17:09.194Z,18.05
2018-09-06T06:19:37.629Z,18.21
2018-09-06T06:22:06.056Z,18.24
2018-09-06T06:24:34.456Z,18.23
2018-09-06T06:27:02.885Z,18.32
2018-09-06T06:29:31.297Z,18.38
2018-09-06T06:31:59.702Z,18.43
2018-09-06T06:34:28.076Z,18.56
2018-09-06T06:36:56.601Z,18.59
2018-09-06T06:39:25.020Z,18.60
2018-09-06T06:41:53.434Z,18.63
2018-09-06T06:44:21.873Z,18.70
2018-09-06T06:46:50.253Z,18.76
2018-09-06T06:49:18.670Z,18.85
2018-09-06T06:51:47.090Z,18.97
2018-09-06T06:54:15.540Z,19.03
2018-09-06T06:56:43.915Z,19.15
2018-09-06T06:59:12.349Z,19.32
2018-09-06T07:01:40.725Z,19.43
2018-09-06T07:06:43.669Z,19.70
2018-09-06T07:09:12.365Z,19.89
2018-09-06T07:11:40.769Z,20.07
2018-09-06T07:14:09.197Z,20.20
2018-09-06T07:16:37.581Z,20.23
2018-09-06T07:19:06.072Z,20.38
2018-09-06T07:21:34.480Z,20.45
2018-09-06T07:24:02.905Z,20.52
2018-09-06T07:26:31.329Z,20.65
2018-09-06T07:28:59.798Z,20.84
2018-09-06T07:31:28.218Z,20.98
2018-09-06T07:33:56.621Z,21.08
2018-09-06T07:36:25.057Z,21.26
2018-09-06T07:38:53.449Z,21.40
2018-09-06T07:41:21.910Z,21.48
2018-09-06T07:43:50.312Z,21.54
2018-09-06T07:46:18.802Z,21.64
2018-09-06T07:48:47.181Z,21.81
2018-09-06T07:51:15.629Z,21.87
2018-09-06T07:53:44.005Z,21.85
2018-09-06T07:56:12.433Z,21.88
2018-09-06T07:58:40.829Z,22.00
2018-09-06T08:01:09.286Z,22.16
2018-09-06T08:03:37.721Z,22.21
2018-09-06T08:06:06.178Z,22.20
2018-09-06T08:08:34.581Z,22.18
2018-09-06T08:11:02.993Z,22.29
2018-09-06T08:13:31.370Z,22.43
2018-09-06T08:15:59.834Z,22.52
2018-09-06T08:18:28.221Z,22.57
2018-09-06T08:21:03.413Z,22.63
2018-09-06T08:23:31.852Z,22.59
2018-09-06T08:26:00.289Z,22.49
2018-09-06T08:28:28.661Z,22.40
2018-09-06T08:30:57.203Z,22.33
2018-09-06T08:33:25.502Z,22.26
2018-09-06T08:35:53.902Z,22.19
2018-09-06T08:38:28.617Z,22.24
2018-09-06T08:40:57.018Z,22.40
2018-09-06T08:43:25.517Z,22.45
2018-09-06T08:45:53.963Z,22.49
2018-09-06T08:48:22.409Z,22.54
2018-09-06T08:50:50.846Z,22.62
2018-09-06T08:53:19.313Z,22.77
2018-09-06T08:55:47.757Z,22.89
2018-09-06T08:58:16.175Z,23.04
2018-09-06T09:00:48.713Z,23.19
2018-09-06T09:03:17.211Z,23.31
2018-09-06T09:05:45.637Z,23.41
2018-09-06T09:08:14.217Z,23.57
2018-09-06T09:10:42.626Z,23.73
2018-09-06T09:13:11.162Z,23.78
2018-09-06T09:15:39.530Z,23.78
2018-09-06T09:18:07.954Z,23.85
2018-09-06T09:20:36.389Z,23.83
2018-09-06T09:23:04.846Z,23.78
2018-09-06T09:25:33.297Z,23.77
2018-09-06T09:28:01.732Z,23.87
2018-09-06T09:30:30.182Z,23.92
2018-09-06T09:32:58.609Z,23.92
2018-09-06T09:35:27.091Z,23.98
2018-09-06T09:37:55.501Z,24.04
2018-09-06T09:40:23.977Z,24.14
2018-09-06T09:42:52.384Z,24.19
2018-09-06T09:45:20.862Z,24.17
2018-09-06T09:47:49.281Z,24.10
2018-09-06T09:52:46.215Z,24.11
2018-09-06T09:55:14.649Z,24.07
2018-09-06T09:57:43.082Z,23.99
2018-09-06T10:18:26.477Z,24.21
2018-09-06T10:20:54.933Z,24.29
2018-09-06T10:23:23.474Z,24.41
2018-09-06T10:25:51.906Z,24.46
2018-09-06T10:28:20.398Z,24.48
2018-09-06T10:30:48.853Z,24.55
2018-09-06T10:33:17.244Z,24.59
2018-09-06T10:35:45.714Z,24.56
2018-09-06T10:38:14.133Z,24.52
2018-09-06T10:40:42.614Z,24.48
2018-09-06T10:43:11.054Z,24.46
2018-09-06T10:45:39.534Z,24.43
2018-09-06T10:48:07.966Z,24.46
2018-09-06T10:50:36.478Z,24.49
2018-09-06T10:53:04.901Z,24.48
2018-09-06T10:55:33.337Z,24.59
2018-09-06T10:58:01.791Z,24.51
2018-09-06T11:00:30.327Z,24.57
2018-09-06T11:02:59.321Z,24.55
2018-09-06T11:05:27.793Z,24.51
2018-09-06T11:07:56.288Z,24.53
2018-09-06T11:10:24.741Z,24.52
2018-09-06T11:12:53.157Z,24.54
2018-09-06T11:15:22.594Z,24.54
2018-09-06T11:17:51.007Z,24.50
2018-09-06T11:20:23.110Z,24.47
2018-09-06T11:22:51.517Z,24.50
2018-09-06T11:25:20.186Z,24.50
2018-09-06T11:27:48.610Z,24.60
2018-09-06T11:30:17.014Z,24.59
2018-09-06T11:32:45.467Z,24.57
2018-09-06T11:35:13.934Z,24.54
2018-09-06T11:37:42.644Z,24.51
2018-09-06T11:40:11.086Z,24.51
2018-09-06T11:42:39.531Z,24.53
2018-09-06T11:45:08.014Z,24.54
2018-09-06T11:47:36.511Z,24.51
2018-09-06T11:50:06.036Z,24.56
2018-09-06T11:52:34.489Z,24.56
2018-09-06T11:55:02.975Z,24.54
2018-09-06T11:57:31.464Z,24.56
2018-09-06T11:59:59.915Z,24.64
2018-09-06T12:02:28.414Z,24.73
2018-09-06T12:04:56.825Z,24.70
2018-09-06T12:07:25.272Z,24.78
2018-09-06T12:09:53.702Z,24.72
2018-09-06T12:12:22.606Z,24.65
2018-09-06T12:14:51.053Z,24.58
2018-09-06T12:17:19.517Z,24.57
2018-09-06T12:19:47.960Z,24.60
2018-09-06T12:22:16.414Z,24.64
2018-09-06T12:24:44.957Z,24.70
2018-09-06T12:27:13.593Z,24.74
2018-09-06T12:29:42.133Z,24.74
2018-09-06T12:32:10.558Z,24.77
2018-09-06T12:34:39.037Z,24.80
2018-09-06T12:37:12.896Z,24.84
2018-09-06T12:44:55.289Z,24.99
2018-09-06T12:47:23.749Z,25.08
2018-09-06T12:49:52.334Z,25.13
2018-09-06T12:52:20.786Z,25.20
2018-09-06T12:54:49.289Z,25.21
2018-09-06T12:57:17.749Z,25.26
2018-09-06T12:59:46.202Z,25.35
2018-09-06T13:04:49.757Z,25.48
2018-09-06T13:07:18.215Z,25.59
2018-09-06T13:09:46.648Z,25.64
2018-09-06T13:12:15.251Z,25.65
2018-09-06T13:14:43.662Z,25.71
2018-09-06T13:17:12.190Z,25.79
2018-09-06T13:19:40.597Z,25.86
2018-09-06T13:22:09.196Z,25.92
2018-09-06T13:24:37.583Z,25.88
2018-09-06T13:27:06.007Z,25.93
2018-09-06T13:29:34.448Z,25.99
2018-09-06T13:32:02.893Z,26.10
2018-09-06T13:34:31.354Z,26.19
2018-09-06T13:36:59.767Z,26.29
2018-09-06T13:44:35.901Z,26.52
2018-09-06T13:47:04.433Z,26.61
2018-09-06T13:49:33.011Z,26.67
2018-09-06T13:52:01.493Z,26.78
2018-09-06T13:54:32.689Z,26.85
2018-09-06T13:57:01.072Z,26.95
2018-09-06T13:59:29.537Z,27.09
2018-09-06T14:01:58.013Z,27.21
2018-09-06T14:04:26.477Z,27.34
2018-09-06T14:06:54.886Z,27.43
2018-09-06T14:12:04.500Z,27.60
2018-09-06T14:14:32.990Z,27.58
2018-09-06T14:17:01.713Z,27.67
2018-09-06T14:19:30.195Z,27.81
2018-09-06T14:21:58.613Z,27.87
2018-09-06T14:24:27.040Z,27.96
2018-09-06T14:26:55.473Z,28.18
2018-09-06T14:29:23.877Z,28.39
2018-09-06T14:31:52.324Z,28.54
2018-09-06T14:34:20.747Z,28.58
2018-09-06T14:36:49.196Z,28.79
2018-09-06T14:39:17.598Z,28.86
2018-09-06T14:41:46.050Z,28.95
2018-09-06T14:44:14.441Z,29.00
2018-09-06T14:46:42.877Z,29.11
2018-09-06T14:49:11.262Z,29.32
2018-09-06T14:51:39.730Z,29.51
2018-09-06T14:54:08.130Z,29.81
2018-09-06T14:56:36.560Z,29.76
2018-09-06T14:59:05.001Z,30.11
2018-09-06T15:01:33.529Z,30.22
2018-09-06T15:04:01.857Z,30.51
2018-09-06T15:06:30.279Z,30.76
2018-09-06T15:08:58.662Z,30.90
2018-09-06T15:11:27.097Z,31.06
2018-09-06T15:13:55.595Z,31.34
2018-09-06T15:16:23.982Z,31.67
2018-09-06T15:18:52.391Z,31.90
2018-09-06T15:21:20.838Z,32.17
2018-09-06T15:23:49.236Z,32.38
2018-09-06T15:26:17.641Z,32.68
2018-09-06T15:28:46.074Z,33.45
2018-09-06T15:31:14.474Z,34.58
2018-09-06T15:33:42.994Z,35.86
2018-09-06T15:36:11.422Z,37.00
2018-09-06T15:38:40.125Z,37.74
2018-09-06T15:41:08.514Z,38.72
2018-09-06T15:43:36.925Z,39.33
2018-09-06T15:46:05.402Z,40.08
2018-09-06T15:48:33.829Z,40.34
2018-09-06T15:51:02.338Z,40.32
2018-09-06T15:53:30.833Z,40.39
2018-09-06T15:55:59.249Z,40.00
2018-09-06T15:58:27.838Z,40.67
2018-09-06T16:00:56.311Z,40.23
2018-09-06T16:03:24.890Z,40.66
2018-09-06T16:05:53.313Z,41.10
2018-09-06T16:08:21.748Z,40.08
2018-09-06T16:10:50.197Z,41.15
2018-09-06T16:13:18.714Z,40.96
2018-09-06T16:15:47.111Z,40.42
2018-09-06T16:18:15.547Z,40.81
2018-09-06T16:20:43.966Z,40.49
2018-09-06T16:23:12.354Z,40.84
2018-09-06T16:25:41.537Z,40.87
2018-09-06T16:28:10.173Z,40.36
2018-09-06T16:33:12.237Z,38.90
2018-09-06T16:35:40.686Z,38.38
2018-09-06T16:38:09.097Z,37.26
2018-09-06T16:43:11.321Z,34.14
2018-09-06T16:45:39.743Z,32.63
2018-09-06T16:48:08.234Z,31.24
2018-09-06T16:53:10.501Z,29.29
2018-09-06T16:55:39.316Z,28.76
2018-09-06T16:58:07.714Z,28.16
2018-09-06T17:03:10.170Z,27.30
2018-09-06T17:05:38.697Z,26.87
2018-09-06T17:08:07.141Z,26.61
2018-09-06T17:10:35.555Z,26.34
2018-09-06T17:13:04.037Z,26.10
2018-09-06T17:15:32.437Z,25.96
2018-09-06T17:18:00.915Z,25.78
2018-09-06T17:20:29.338Z,25.66
2018-09-06T17:22:57.732Z,25.51
2018-09-06T17:25:26.173Z,25.39
2018-09-06T17:27:54.595Z,25.26
2018-09-06T17:30:29.689Z,25.13
2018-09-06T17:32:58.105Z,25.01
2018-09-06T17:35:28.494Z,24.89
2018-09-06T17:37:56.912Z,24.85
2018-09-06T17:40:25.334Z,24.74
2018-09-06T17:42:53.765Z,24.61
2018-09-06T17:45:22.229Z,24.54
2018-09-06T17:47:50.612Z,24.50
2018-09-06T17:50:19.082Z,24.46
2018-09-06T17:52:47.550Z,24.42
2018-09-06T17:55:16.042Z,24.31
2018-09-06T17:57:44.469Z,24.23
2018-09-06T18:00:13.009Z,24.16
2018-09-06T18:02:41.429Z,24.14
2018-09-06T18:05:11.560Z,24.06
2018-09-06T18:07:40.049Z,24.05
2018-09-06T18:12:42.462Z,23.99
2018-09-06T18:15:10.842Z,23.96
2018-09-06T18:17:39.371Z,23.88
2018-09-06T18:20:07.786Z,23.82
2018-09-06T18:22:36.349Z,23.80
2018-09-06T18:25:04.913Z,23.80
2018-09-06T18:27:33.385Z,23.78
2018-09-06T18:30:01.898Z,23.73
2018-09-06T18:32:30.361Z,23.68
2018-09-06T18:34:58.840Z,23.67
2018-09-06T18:37:27.299Z,23.62
2018-09-06T18:45:05.240Z,23.54
2018-09-06T18:47:34.036Z,23.50
2018-09-06T18:50:02.477Z,23.48
2018-09-06T18:52:32.155Z,23.36
2018-09-06T18:55:00.739Z,23.29
2018-09-06T18:57:29.389Z,23.29
2018-09-06T18:59:57.921Z,23.29
2018-09-06T19:02:26.465Z,23.26
2018-09-06T19:04:55.577Z,23.19
2018-09-06T19:07:24.329Z,23.10
2018-09-06T19:15:01.198Z,22.85
2018-09-06T19:17:30.166Z,22.81
2018-09-06T19:19:59.247Z,22.67
2018-09-06T19:22:27.706Z,22.47
2018-09-06T19:24:56.682Z,22.30
2018-09-06T19:27:25.354Z,22.19
2018-09-06T19:29:53.895Z,22.04
2018-09-06T19:32:22.847Z,22.03
2018-09-06T19:34:51.350Z,22.02
2018-09-06T19:37:19.920Z,21.75
2018-09-06T19:39:48.837Z,21.67
2018-09-06T19:42:17.337Z,21.56
2018-09-06T19:44:46.025Z,21.51
2018-09-06T19:47:15.053Z,21.49
2018-09-06T19:49:43.707Z,21.36
2018-09-06T19:52:12.706Z,21.23
2018-09-06T19:54:44.074Z,21.10
2018-09-06T19:57:13.094Z,20.98
2018-09-06T19:59:42.466Z,20.85
2018-09-06T20:02:10.972Z,20.69
2018-09-06T20:04:39.605Z,20.61
2018-09-06T20:07:08.330Z,20.55
2018-09-06T20:09:38.100Z,20.52
2018-09-06T20:12:06.715Z,20.38
2018-09-06T20:14:35.609Z,20.34
2018-09-06T20:17:05.358Z,20.31
2018-09-06T20:19:34.239Z,20.30
2018-09-06T20:22:02.727Z,20.32
2018-09-06T20:24:31.411Z,20.34
2018-09-06T20:27:00.210Z,20.34
2018-09-06T20:29:28.684Z,20.35
2018-09-06T20:31:57.212Z,20.27
2018-09-06T20:34:25.599Z,20.14
2018-09-06T20:36:54.076Z,20.05
2018-09-06T20:39:22.599Z,19.95
2018-09-06T20:41:51.090Z,19.89
2018-09-06T20:44:19.507Z,19.70
2018-09-06T20:46:47.939Z,19.62
2018-09-06T20:49:16.617Z,19.61
2018-09-06T20:51:46.124Z,19.52
2018-09-06T20:54:14.559Z,19.40
2018-09-06T20:56:43.010Z,19.29
2018-09-06T20:59:11.501Z,19.21
2018-09-06T21:01:39.972Z,19.24
2018-09-06T21:04:08.538Z,19.25
2018-09-06T21:06:37.009Z,19.27
2018-09-06T21:11:40.766Z,19.28
2018-09-06T21:14:09.225Z,19.33
2018-09-06T21:16:37.616Z,19.40
2018-09-06T21:19:06.097Z,19.38
2018-09-06T21:21:34.513Z,19.33
2018-09-06T21:24:02.908Z,19.34
2018-09-06T21:26:31.326Z,19.33
2018-09-06T21:28:59.713Z,19.25
2018-09-06T21:31:28.133Z,19.24
2018-09-06T21:33:56.537Z,19.37
2018-09-06T21:36:25.970Z,19.37
2018-09-06T21:38:54.361Z,19.33
2018-09-06T21:41:22.898Z,19.31
2018-09-06T21:43:51.317Z,19.28
2018-09-06T21:46:19.721Z,19.23
2018-09-06T21:59:28.105Z,18.86
2018-09-06T22:01:56.609Z,18.75
2018-09-06T22:04:25.036Z,18.67
2018-09-06T22:06:53.437Z,18.62
2018-09-06T22:09:21.932Z,18.68
2018-09-06T22:11:50.369Z,18.61
2018-09-06T22:14:18.870Z,18.53
2018-09-06T22:16:47.265Z,18.52
2018-09-06T22:19:15.725Z,18.49
2018-09-06T22:21:44.333Z,18.50
2018-09-06T22:24:12.788Z,18.57
2018-09-06T22:26:42.253Z,18.53
2018-09-06T22:29:10.681Z,18.52
2018-09-06T22:31:39.181Z,18.45
2018-09-06T22:34:07.633Z,18.47
2018-09-06T22:36:36.026Z,18.55
2018-09-06T22:39:06.001Z,18.52
2018-09-06T22:41:34.685Z,18.50
2018-09-06T22:44:03.110Z,18.54
2018-09-06T22:46:31.720Z,18.50
2018-09-06T22:49:00.169Z,18.49
2018-09-06T22:51:28.601Z,18.38
2018-09-06T22:53:57.025Z,18.35
2018-09-06T22:56:25.483Z,18.27
2018-09-06T22:58:53.951Z,18.25
2018-09-06T23:01:22.393Z,18.14
2018-09-06T23:03:53.297Z,18.06
2018-09-06T23:06:23.734Z,18.05
2018-09-06T23:08:52.754Z,18.03
2018-09-06T23:11:21.299Z,17.91
2018-09-06T23:13:50.138Z,17.85
2018-09-06T23:16:19.270Z,17.89
2018-09-06T23:18:54.548Z,17.83
2018-09-06T23:21:23.479Z,17.74
2018-09-06T23:23:52.056Z,17.75
2018-09-06T23:26:20.717Z,17.67
2018-09-06T23:28:56.041Z,17.62
2018-09-06T23:31:24.559Z,17.57
2018-09-06T23:33:53.196Z,17.57
2018-09-06T23:36:23.598Z,17.62
2018-09-06T23:38:58.943Z,17.60
2018-09-06T23:41:28.331Z,17.63
2018-09-06T23:43:56.867Z,17.66
2018-09-06T23:46:25.570Z,17.68
2018-09-06T23:48:54.090Z,17.62
2018-09-06T23:51:22.542Z,17.62
2018-09-06T23:53:50.990Z,17.64
2018-09-06T23:56:19.406Z,17.70
2018-09-06T23:58:47.909Z,17.73
